Urb San Rafael Est Ii, Puerto Rico
Current Conditions -  °F | °C
As of 11:56 AM on Saturday 22 Nov 2014 (Local Time) from TJSJ Reporting Station
Light Rain Light Rain  
Wind Chill: 79°   Ceiling: 3800
Heat Index: 83°   Visibility: 10mi
Dew Point: 77°   Wind: 8mph
Humidity: 94%   Direction: 70°ENE
Pressure: 30.03"   Gusts: NA
Location:  18.1781°N, 66.1167°W
Report Text: TJSJ 221556Z 07007KT 10SM -RA SCT024 BKN038 OVC070 26/25 A3003 RMK AO2 RAB32 SLP168 VIS LWR W P0001 T02610250
Loading
Personal Weather Stations






























Interactive Weather Map New forecast layout! Learn more

10-Day Weather Forecast

Advertisements
Track Severe Weather on mobile